createdAt,value
2018-04-14T00:01:58.430Z,15.53
2018-04-14T00:04:25.864Z,15.73
2018-04-14T00:06:54.067Z,18.50
2018-04-14T00:09:21.516Z,16.60
2018-04-14T00:11:48.959Z,14.90
2018-04-14T00:14:17.167Z,17.17
2018-04-14T00:16:44.716Z,15.40
2018-04-14T00:19:12.144Z,15.47
2018-04-14T00:21:40.365Z,15.70
2018-04-14T00:24:07.812Z,15.20
2018-04-14T00:26:35.261Z,16.37
2018-04-14T00:29:02.717Z,16.97
2018-04-14T00:31:30.140Z,17.20
2018-04-14T00:33:58.356Z,14.90
2018-04-14T00:36:25.804Z,17.40
2018-04-14T00:38:53.247Z,16.30
2018-04-14T00:41:20.688Z,16.77
2018-04-14T00:43:48.896Z,16.53
2018-04-14T00:46:16.348Z,15.50
2018-04-14T00:48:43.801Z,16.37
2018-04-14T00:51:11.224Z,16.77
2018-04-14T00:53:47.344Z,16.37
2018-04-14T00:56:14.781Z,16.70
2018-04-14T00:58:42.220Z,18.97
2018-04-14T01:01:09.677Z,18.13
2018-04-14T01:03:37.116Z,16.17
2018-04-14T01:06:04.653Z,19.67
2018-04-14T01:08:32.074Z,16.00
2018-04-14T01:10:59.520Z,17.40
2018-04-14T01:13:26.980Z,16.97
2018-04-14T01:15:54.433Z,18.93
2018-04-14T01:18:21.864Z,19.07
2018-04-14T01:20:49.316Z,17.87
2018-04-14T01:23:17.648Z,18.43
2018-04-14T01:25:45.096Z,19.60
2018-04-14T01:28:12.536Z,18.77
2018-04-14T01:30:39.964Z,18.03
2018-04-14T01:33:07.415Z,18.27
2018-04-14T01:35:35.613Z,16.20
2018-04-14T01:38:03.053Z,21.10
2018-04-14T01:40:31.252Z,16.27
2018-04-14T01:42:58.704Z,18.63
2018-04-14T01:45:26.143Z,15.43
2018-04-14T01:47:53.581Z,18.37
2018-04-14T01:50:21.800Z,17.37
2018-04-14T01:52:49.257Z,17.17
2018-04-14T01:55:16.947Z,16.47
2018-04-14T01:57:44.376Z,15.87
2018-04-14T02:00:11.829Z,16.07
2018-04-14T02:02:39.274Z,15.60
2018-04-14T02:05:06.713Z,14.27
2018-04-14T02:07:34.920Z,13.60
2018-04-14T02:10:02.436Z,15.90
2018-04-14T02:12:30.648Z,12.67
2018-04-14T02:14:58.085Z,15.23
2018-04-14T02:17:25.524Z,12.87
2018-04-14T02:19:53.716Z,11.07
2018-04-14T02:22:21.160Z,14.73
2018-04-14T02:24:49.372Z,13.57
2018-04-14T02:27:16.827Z,14.43
2018-04-14T02:29:44.253Z,12.10
2018-04-14T02:32:12.473Z,11.30
2018-04-14T02:34:39.912Z,10.73
2018-04-14T02:37:07.345Z,9.90
2018-04-14T02:39:34.845Z,10.47
2018-04-14T02:42:02.293Z,10.13
2018-04-14T02:44:29.738Z,10.10
2018-04-14T02:46:57.171Z,9.73
2018-04-14T02:49:25.368Z,8.07
2018-04-14T02:51:52.812Z,7.50
2018-04-14T02:54:20.241Z,7.53
2018-04-14T02:56:48.437Z,7.70
2018-04-14T02:59:15.873Z,8.10
2018-04-14T03:01:44.073Z,7.37
2018-04-14T03:04:11.519Z,9.53
2018-04-14T03:06:39.702Z,10.07
2018-04-14T03:09:07.342Z,6.70
2018-04-14T03:11:34.730Z,7.30
2018-04-14T03:14:02.144Z,6.40
2018-04-14T03:16:30.421Z,6.77
2018-04-14T03:18:58.638Z,7.70
2018-04-14T03:21:26.041Z,5.30
2018-04-14T03:23:53.480Z,5.33
2018-04-14T03:26:20.905Z,5.67
2018-04-14T03:28:48.580Z,5.80
2018-04-14T03:31:16.052Z,6.43
2018-04-14T03:33:43.444Z,5.87
2018-04-14T03:36:11.710Z,5.60
2018-04-14T03:38:39.885Z,5.43
2018-04-14T03:41:08.090Z,5.20
2018-04-14T03:43:35.528Z,8.10
2018-04-14T03:46:03.729Z,5.30
2018-04-14T03:48:31.221Z,5.73
2018-04-14T03:50:58.663Z,5.37
2018-04-14T03:53:26.112Z,5.30
2018-04-14T03:55:53.580Z,5.97
2018-04-14T03:58:21.004Z,4.57
2018-04-14T04:00:48.453Z,4.53
2018-04-14T04:03:15.892Z,4.10
2018-04-14T04:05:44.088Z,7.53
2018-04-14T04:08:11.527Z,5.23
2018-04-14T04:10:39.721Z,4.17
2018-04-14T04:13:07.156Z,7.43
2018-04-14T04:15:34.593Z,5.90
2018-04-14T04:18:02.028Z,5.53
2018-04-14T04:20:42.924Z,6.17
2018-04-14T04:23:22.210Z,4.90
2018-04-14T04:25:49.632Z,6.80
2018-04-14T04:28:17.840Z,5.27
2018-04-14T04:30:45.268Z,5.63
2018-04-14T04:33:13.469Z,6.20
2018-04-14T04:35:40.946Z,5.30
2018-04-14T04:38:08.387Z,5.77
2018-04-14T04:40:35.808Z,6.07
2018-04-14T04:43:04.012Z,7.93
2018-04-14T04:45:31.432Z,6.23
2018-04-14T04:47:59.631Z,7.80
2018-04-14T04:50:27.053Z,7.67
2018-04-14T04:52:54.580Z,7.10
2018-04-14T04:55:22.221Z,8.23
2018-04-14T04:57:49.785Z,7.40
2018-04-14T05:00:17.200Z,9.87
2018-04-14T05:02:45.408Z,8.60
2018-04-14T05:05:12.849Z,7.23
2018-04-14T05:07:40.271Z,7.90
2018-04-14T05:10:07.698Z,7.40
2018-04-14T05:12:35.135Z,6.17
2018-04-14T05:15:02.579Z,5.20
2018-04-14T05:17:30.001Z,7.50
2018-04-14T05:19:57.435Z,6.30
2018-04-14T05:22:24.874Z,7.53
2018-04-14T05:24:52.317Z,5.23
2018-04-14T05:27:19.741Z,5.37
2018-04-14T05:29:47.936Z,7.53
2018-04-14T05:32:15.379Z,5.63
2018-04-14T05:34:43.559Z,3.87
2018-04-14T05:37:10.993Z,5.37
2018-04-14T05:39:39.184Z,5.50
2018-04-14T05:42:06.645Z,6.03
2018-04-14T05:44:34.838Z,4.20
2018-04-14T05:47:02.252Z,6.33
2018-04-14T05:49:30.453Z,6.23
2018-04-14T05:51:57.881Z,4.73
2018-04-14T05:54:25.509Z,6.80
2018-04-14T05:56:52.942Z,4.33
2018-04-14T05:59:20.360Z,4.03
2018-04-14T06:01:48.579Z,12.63
2018-04-14T06:04:16.012Z,6.00
2018-04-14T06:06:43.448Z,4.00
2018-04-14T06:09:11.711Z,3.33
2018-04-14T06:11:39.097Z,5.87
2018-04-14T06:14:06.537Z,6.53
2018-04-14T06:16:34.797Z,7.53
2018-04-14T06:19:02.238Z,5.30
2018-04-14T06:21:29.680Z,4.83
2018-04-14T06:23:57.111Z,6.10
2018-04-14T06:26:24.551Z,6.17
2018-04-14T06:28:52.763Z,4.40
2018-04-14T06:31:20.211Z,4.47
2018-04-14T06:33:47.700Z,5.87
2018-04-14T06:36:15.342Z,3.23
2018-04-14T06:38:42.764Z,4.50
2018-04-14T06:41:10.200Z,4.07
2018-04-14T06:43:38.409Z,7.07
2018-04-14T06:46:06.005Z,4.33
2018-04-14T06:48:33.440Z,3.27
2018-04-14T06:51:00.881Z,5.60
2018-04-14T06:53:28.324Z,3.73
2018-04-14T06:55:55.811Z,3.73
2018-04-14T06:58:23.970Z,3.27
2018-04-14T07:00:51.392Z,3.37
2018-04-14T07:03:19.602Z,3.10
2018-04-14T07:05:47.048Z,3.47
2018-04-14T07:08:14.470Z,4.50
2018-04-14T07:10:42.686Z,5.30
2018-04-14T07:13:10.131Z,4.23
2018-04-14T07:15:37.572Z,3.00
2018-04-14T07:18:05.770Z,4.70
2018-04-14T07:20:33.208Z,6.53
2018-04-14T07:23:01.419Z,7.63
2018-04-14T07:25:28.862Z,7.13
2018-04-14T07:27:56.307Z,3.80
2018-04-14T07:30:23.729Z,5.50
2018-04-14T07:32:51.182Z,6.37
2018-04-14T07:35:19.380Z,7.60
2018-04-14T07:37:47.581Z,2.63
2018-04-14T07:40:15.021Z,5.73
2018-04-14T07:42:42.448Z,7.57
2018-04-14T07:45:10.697Z,4.17
2018-04-14T07:47:38.146Z,3.83
2018-04-14T07:50:05.594Z,3.80
2018-04-14T07:52:33.026Z,3.63
2018-04-14T07:55:00.456Z,4.70
2018-04-14T07:57:28.667Z,4.37
2018-04-14T07:59:56.126Z,9.37
2018-04-14T08:02:23.544Z,4.77
2018-04-14T08:04:51.760Z,3.73
2018-04-14T08:07:19.187Z,5.23
2018-04-14T08:09:47.419Z,6.80
2018-04-14T08:12:14.873Z,2.80
2018-04-14T08:14:42.298Z,4.67
2018-04-14T08:17:10.082Z,4.67
2018-04-14T08:19:37.519Z,5.40
2018-04-14T08:22:04.951Z,5.77
2018-04-14T08:24:33.160Z,10.10
2018-04-14T08:27:00.616Z,4.30
2018-04-14T08:29:28.061Z,5.63
2018-04-14T08:31:55.502Z,11.43
2018-04-14T08:34:22.954Z,18.53
2018-04-14T08:36:50.388Z,6.07
2018-04-14T08:39:17.823Z,4.47
2018-04-14T08:41:45.289Z,9.00
2018-04-14T08:44:12.734Z,6.67
2018-04-14T08:46:40.187Z,6.50
2018-04-14T08:49:07.638Z,4.77
2018-04-14T08:51:35.085Z,5.17
2018-04-14T08:54:02.590Z,6.43
2018-04-14T08:56:29.984Z,5.70
2018-04-14T08:58:57.442Z,10.70
2018-04-14T09:01:24.931Z,8.07
2018-04-14T09:03:52.355Z,4.37
2018-04-14T09:06:19.799Z,4.40
2018-04-14T09:11:21.303Z,3.50
2018-04-14T09:13:48.742Z,6.70
2018-04-14T09:16:16.181Z,5.87
2018-04-14T09:18:43.624Z,6.30
2018-04-14T09:21:11.823Z,7.87
2018-04-14T09:23:39.277Z,5.87
2018-04-14T09:26:06.705Z,3.93
2018-04-14T09:28:35.018Z,3.20
2018-04-14T09:31:02.451Z,5.63
2018-04-14T09:33:29.896Z,7.97
2018-04-14T09:35:58.114Z,3.17
2018-04-14T09:38:25.546Z,5.00
2018-04-14T09:40:53.034Z,2.23
2018-04-14T09:43:20.728Z,4.97
2018-04-14T09:45:48.921Z,6.00
2018-04-14T09:48:17.122Z,3.70
2018-04-14T09:50:44.582Z,4.27
2018-04-14T09:53:12.020Z,6.30
2018-04-14T09:55:40.234Z,3.87
2018-04-14T09:58:07.670Z,1.77
2018-04-14T10:00:40.833Z,4.33
2018-04-14T10:03:29.987Z,6.80
2018-04-14T10:05:58.197Z,3.53
2018-04-14T10:08:25.643Z,6.37
2018-04-14T10:10:53.098Z,2.40
2018-04-14T10:13:20.518Z,3.90
2018-04-14T10:15:47.953Z,2.40
2018-04-14T10:18:15.392Z,4.63
2018-04-14T10:20:42.846Z,2.77
2018-04-14T10:23:10.281Z,3.57
2018-04-14T10:25:37.825Z,5.03
2018-04-14T10:28:06.025Z,5.00
2018-04-14T10:30:33.480Z,7.47
2018-04-14T10:33:00.912Z,6.00
2018-04-14T10:35:29.117Z,2.93
2018-04-14T10:37:56.589Z,2.77
2018-04-14T10:40:24.046Z,4.97
2018-04-14T10:42:51.705Z,4.60
2018-04-14T10:45:19.131Z,6.37
2018-04-14T10:47:46.561Z,4.63
2018-04-14T10:50:15.007Z,4.97
2018-04-14T10:52:42.498Z,5.35
2018-04-14T10:55:10.697Z,3.50
2018-04-14T10:57:38.157Z,6.25
2018-04-14T11:00:05.592Z,15.48
2018-04-14T11:02:33.801Z,7.87
2018-04-14T11:05:01.246Z,3.05
2018-04-14T11:07:28.681Z,4.03
2018-04-14T11:09:56.900Z,3.05
2018-04-14T11:12:24.317Z,2.85
2018-04-14T11:14:52.533Z,6.45
2018-04-14T11:17:19.976Z,3.85
2018-04-14T11:19:47.426Z,6.65
2018-04-14T11:22:14.850Z,4.07
2018-04-14T11:24:43.044Z,3.58
2018-04-14T11:27:10.490Z,2.30
2018-04-14T11:29:38.692Z,3.03
2018-04-14T11:32:06.148Z,2.80
2018-04-14T11:34:33.572Z,2.72
2018-04-14T11:37:01.796Z,3.78
2018-04-14T11:39:29.220Z,3.03
2018-04-14T11:41:56.667Z,1.42
2018-04-14T11:44:24.373Z,2.03
2018-04-14T11:46:51.805Z,1.33
2018-04-14T11:49:19.231Z,2.60
2018-04-14T11:51:47.459Z,4.93
2018-04-14T11:54:14.885Z,5.10
2018-04-14T11:56:42.325Z,1.57
2018-04-14T11:59:10.513Z,0.80
2018-04-14T12:01:37.964Z,3.07
2018-04-14T12:04:05.393Z,4.43
2018-04-14T12:06:32.832Z,3.03
2018-04-14T12:09:00.485Z,6.87
2018-04-14T12:11:27.914Z,3.63
2018-04-14T12:13:55.344Z,1.77
2018-04-14T12:16:23.549Z,3.13
2018-04-14T12:18:50.985Z,2.60
2018-04-14T12:21:18.428Z,1.10
2018-04-14T12:23:46.631Z,1.73
2018-04-14T12:26:14.269Z,0.83
2018-04-14T12:28:42.466Z,1.60
2018-04-14T12:31:09.898Z,1.00
2018-04-14T12:33:38.121Z,1.50
2018-04-14T12:36:05.557Z,3.70
2018-04-14T12:38:32.988Z,3.20
2018-04-14T12:41:00.439Z,3.03
2018-04-14T12:43:28.651Z,1.60
2018-04-14T12:45:56.096Z,1.97
2018-04-14T12:48:23.517Z,2.17
2018-04-14T12:50:50.961Z,7.43
2018-04-14T12:53:18.388Z,1.57
2018-04-14T12:55:45.830Z,2.23
2018-04-14T12:58:13.282Z,1.70
2018-04-14T13:00:40.736Z,1.90
2018-04-14T13:03:08.153Z,8.70
2018-04-14T13:05:36.364Z,2.53
2018-04-14T13:08:03.792Z,1.73
2018-04-14T13:10:31.996Z,1.90
2018-04-14T13:12:59.440Z,1.77
2018-04-14T13:15:26.881Z,0.90
2018-04-14T13:17:55.081Z,3.07
2018-04-14T13:20:22.518Z,2.50
2018-04-14T13:22:50.740Z,1.77
2018-04-14T13:25:18.187Z,1.47
2018-04-14T13:27:45.634Z,0.80
2018-04-14T13:30:13.081Z,3.90
2018-04-14T13:32:40.521Z,2.33
2018-04-14T13:35:07.979Z,1.63
2018-04-14T13:37:35.629Z,1.73
2018-04-14T13:40:03.018Z,1.50
2018-04-14T13:42:30.490Z,0.83
2018-04-14T13:44:58.253Z,0.80
2018-04-14T13:47:25.691Z,2.60
2018-04-14T13:49:53.120Z,1.93
2018-04-14T13:52:21.325Z,1.13
2018-04-14T13:54:48.770Z,2.40
2018-04-14T13:57:16.958Z,2.63
2018-04-14T13:59:44.393Z,1.67
2018-04-14T14:02:11.830Z,1.40
2018-04-14T14:04:40.024Z,3.90
2018-04-14T14:07:07.466Z,3.03
2018-04-14T14:09:35.656Z,2.77
2018-04-14T14:12:03.097Z,2.40
2018-04-14T14:14:31.293Z,2.10
2018-04-14T14:16:58.720Z,1.27
2018-04-14T14:19:26.932Z,1.63
2018-04-14T14:21:55.371Z,2.53
2018-04-14T14:24:22.781Z,2.67
2018-04-14T14:26:50.213Z,2.43
2018-04-14T14:29:18.095Z,2.93
2018-04-14T14:31:45.545Z,1.43
2018-04-14T14:34:12.975Z,1.70
2018-04-14T14:36:41.193Z,2.10
2018-04-14T14:39:08.621Z,3.23
2018-04-14T14:41:36.075Z,2.33
2018-04-14T14:44:03.496Z,3.50
2018-04-14T14:46:30.936Z,3.10
2018-04-14T14:48:58.381Z,5.40
2018-04-14T14:51:25.805Z,4.23
2018-04-14T14:53:53.255Z,3.40
2018-04-14T14:56:20.699Z,2.20
2018-04-14T14:58:48.912Z,2.77
2018-04-14T15:01:16.348Z,4.20
2018-04-14T15:03:43.776Z,3.63
2018-04-14T15:06:11.991Z,3.07
2018-04-14T15:08:39.422Z,3.30
2018-04-14T15:11:07.629Z,3.10
2018-04-14T15:13:35.061Z,2.10
2018-04-14T15:16:02.500Z,5.93
2018-04-14T15:18:30.717Z,2.80
2018-04-14T15:20:58.140Z,5.20
2018-04-14T15:23:25.598Z,3.20
2018-04-14T15:25:53.795Z,9.47
2018-04-14T15:28:21.226Z,2.50
2018-04-14T15:30:49.450Z,7.97
2018-04-14T15:33:16.884Z,3.53
2018-04-14T15:35:44.318Z,5.30
2018-04-14T15:38:12.536Z,8.83
2018-04-14T15:40:40.189Z,4.73
2018-04-14T15:43:07.620Z,49.47
2018-04-14T15:45:35.052Z,6.10
2018-04-14T15:48:03.265Z,4.30
2018-04-14T15:50:30.711Z,4.53
2018-04-14T15:52:58.140Z,5.00
2018-04-14T15:55:26.349Z,5.17
2018-04-14T15:57:53.810Z,5.57
2018-04-14T16:00:21.256Z,4.27
2018-04-14T16:02:48.689Z,4.33
2018-04-14T16:05:16.913Z,3.97
2018-04-14T16:10:18.395Z,6.83
2018-04-14T16:12:45.836Z,5.73
2018-04-14T16:15:13.276Z,4.83
2018-04-14T16:17:40.717Z,4.53
2018-04-14T16:20:08.137Z,3.47
2018-04-14T16:22:35.574Z,3.60
2018-04-14T16:25:03.020Z,4.87
2018-04-14T16:27:30.459Z,10.73
2018-04-14T16:29:57.885Z,7.90
2018-04-14T16:32:25.394Z,2.87
2018-04-14T16:34:52.841Z,4.40
2018-04-14T16:37:20.308Z,3.10
2018-04-14T16:39:47.750Z,3.40
2018-04-14T16:42:15.195Z,3.93
2018-04-14T16:44:42.630Z,3.83
2018-04-14T16:47:10.075Z,2.83
2018-04-14T16:49:38.304Z,3.43
2018-04-14T16:52:05.843Z,4.03
2018-04-14T16:54:33.266Z,4.50
2018-04-14T16:57:01.482Z,3.20
2018-04-14T16:59:28.910Z,3.10
2018-04-14T17:01:56.501Z,8.63
2018-04-14T17:04:23.932Z,3.93
2018-04-14T17:06:51.381Z,4.47
2018-04-14T17:09:19.581Z,6.27
2018-04-14T17:11:47.028Z,4.17
2018-04-14T17:14:14.448Z,5.17
2018-04-14T17:16:42.889Z,3.17
2018-04-14T17:19:10.321Z,4.10
2018-04-14T17:21:37.745Z,5.23
2018-04-14T17:24:05.965Z,7.27
2018-04-14T17:26:33.388Z,7.03
2018-04-14T17:29:00.827Z,4.67
2018-04-14T17:31:28.260Z,4.67
2018-04-14T17:33:55.695Z,4.97
2018-04-14T17:36:23.137Z,3.90
2018-04-14T17:38:50.608Z,7.13
2018-04-14T17:41:18.063Z,4.57
2018-04-14T17:43:45.495Z,4.87
2018-04-14T17:46:12.948Z,4.10
2018-04-14T17:48:40.544Z,4.77
2018-04-14T17:51:07.977Z,5.10
2018-04-14T17:53:35.395Z,5.23
2018-04-14T17:56:03.835Z,4.67
2018-04-14T17:58:31.270Z,5.67
2018-04-14T18:00:58.702Z,6.53
2018-04-14T18:03:26.914Z,6.57
2018-04-14T18:05:54.373Z,4.77
2018-04-14T18:08:21.823Z,5.43
2018-04-14T18:10:49.289Z,4.63
2018-04-14T18:13:16.729Z,4.80
2018-04-14T18:15:44.171Z,4.53
2018-04-14T18:18:11.717Z,5.03
2018-04-14T18:20:39.923Z,4.40
2018-04-14T18:23:07.341Z,4.73
2018-04-14T18:25:35.553Z,7.40
2018-04-14T18:28:03.008Z,5.40
2018-04-14T18:30:30.428Z,5.03
2018-04-14T18:32:58.655Z,4.90
2018-04-14T18:35:26.116Z,4.70
2018-04-14T18:37:53.576Z,6.50
2018-04-14T18:40:21.008Z,4.87
2018-04-14T18:42:48.441Z,4.90
2018-04-14T18:45:15.949Z,9.13
2018-04-14T18:47:43.696Z,7.17
2018-04-14T18:50:11.217Z,12.30
2018-04-14T18:52:38.596Z,9.13
2018-04-14T18:55:06.028Z,5.50
2018-04-14T18:57:34.231Z,9.80
2018-04-14T19:00:01.733Z,7.97
2018-04-14T19:02:29.224Z,36.23
2018-04-14T19:04:56.627Z,14.20
2018-04-14T19:07:24.055Z,6.63
2018-04-14T19:09:51.563Z,6.00
2018-04-14T19:12:19.014Z,6.60
2018-04-14T19:14:46.465Z,7.97
2018-04-14T19:17:13.906Z,6.50
2018-04-14T19:19:41.665Z,5.53
2018-04-14T19:22:09.090Z,10.37
2018-04-14T19:24:36.614Z,12.33
2018-04-14T19:27:04.049Z,10.03
2018-04-14T19:29:31.580Z,6.90
2018-04-14T19:31:59.258Z,6.23
2018-04-14T19:34:26.703Z,7.33
2018-04-14T19:36:54.198Z,7.27
2018-04-14T19:39:21.646Z,6.10
2018-04-14T19:41:49.232Z,6.13
2018-04-14T19:44:17.450Z,6.10
2018-04-14T19:46:44.881Z,7.30
2018-04-14T19:49:12.325Z,11.27
2018-04-14T19:51:40.521Z,6.10
2018-04-14T19:54:07.971Z,7.43
2018-04-14T19:56:35.404Z,6.40
2018-04-14T19:59:03.592Z,7.20
2018-04-14T20:01:31.197Z,9.37
2018-04-14T20:03:58.623Z,8.20
2018-04-14T20:06:26.058Z,7.20
2018-04-14T20:08:54.265Z,7.20
2018-04-14T20:11:21.812Z,9.20
2018-04-14T20:13:49.236Z,9.67
2018-04-14T20:16:17.464Z,7.13
2018-04-14T20:18:44.910Z,8.07
2018-04-14T20:21:12.376Z,6.67
2018-04-14T20:23:39.818Z,9.73
2018-04-14T20:26:07.260Z,7.00
2018-04-14T20:28:35.503Z,7.80
2018-04-14T20:31:02.943Z,6.17
2018-04-14T20:33:30.674Z,6.73
2018-04-14T20:35:58.093Z,7.13
2018-04-14T20:38:26.347Z,8.13
2018-04-14T20:40:53.987Z,6.53
2018-04-14T20:43:21.428Z,5.00
2018-04-14T20:45:48.842Z,5.83
2018-04-14T20:48:17.051Z,9.90
2018-04-14T20:50:44.552Z,6.87
2018-04-14T20:53:12.000Z,5.10
2018-04-14T20:55:39.441Z,4.30
2018-04-14T20:58:06.889Z,4.87
2018-04-14T21:00:34.353Z,7.07
2018-04-14T21:03:01.793Z,6.57
2018-04-14T21:05:29.221Z,8.47
2018-04-14T21:07:56.644Z,7.07
2018-04-14T21:10:24.086Z,5.60
2018-04-14T21:12:51.744Z,5.13
2018-04-14T21:15:19.189Z,8.13
2018-04-14T21:17:46.646Z,5.23
2018-04-14T21:20:14.317Z,9.20
2018-04-14T21:22:41.751Z,5.93
2018-04-14T21:25:09.193Z,12.47
2018-04-14T21:27:36.637Z,8.90
2018-04-14T21:30:04.842Z,7.13
2018-04-14T21:32:32.303Z,5.50
2018-04-14T21:34:59.724Z,7.27
2018-04-14T21:37:27.930Z,9.87
2018-04-14T21:39:55.398Z,8.57
2018-04-14T21:42:23.035Z,8.30
2018-04-14T21:44:50.480Z,6.43
2018-04-14T21:47:18.673Z,14.07
2018-04-14T21:49:46.180Z,10.83
2018-04-14T21:52:13.616Z,8.13
2018-04-14T21:54:41.057Z,7.80
2018-04-14T21:57:08.538Z,7.13
2018-04-14T21:59:35.980Z,7.93
2018-04-14T22:02:03.425Z,7.17
2018-04-14T22:04:30.873Z,7.53
2018-04-14T22:06:58.305Z,7.73
2018-04-14T22:09:26.508Z,6.37
2018-04-14T22:11:54.037Z,7.50
2018-04-14T22:14:34.075Z,8.27
2018-04-14T22:17:02.289Z,8.03
2018-04-14T22:19:29.738Z,7.60
2018-04-14T22:21:57.929Z,9.33
2018-04-14T22:24:25.391Z,8.60
2018-04-14T22:26:52.853Z,9.40
2018-04-14T22:29:20.300Z,8.13
2018-04-14T22:31:47.734Z,7.43
2018-04-14T22:34:15.187Z,7.83
2018-04-14T22:36:42.650Z,9.50
2018-04-14T22:39:10.872Z,10.90
2018-04-14T22:41:38.374Z,7.97
2018-04-14T22:44:05.829Z,7.73
2018-04-14T22:46:33.259Z,8.27
2018-04-14T22:49:00.728Z,8.93
2018-04-14T22:51:28.948Z,7.77
2018-04-14T22:53:56.416Z,6.57
2018-04-14T22:56:23.856Z,9.73
2018-04-14T22:58:51.296Z,5.93
2018-04-14T23:01:18.735Z,8.07
2018-04-14T23:03:46.938Z,6.90
2018-04-14T23:06:14.370Z,6.40
2018-04-14T23:08:41.820Z,7.97
2018-04-14T23:11:10.029Z,7.10
2018-04-14T23:13:37.501Z,7.80
2018-04-14T23:16:04.944Z,5.87
2018-04-14T23:18:32.382Z,6.80
2018-04-14T23:20:59.824Z,8.03
2018-04-14T23:23:28.021Z,7.03
2018-04-14T23:25:55.464Z,9.20
2018-04-14T23:28:22.908Z,9.40
2018-04-14T23:30:51.107Z,7.83
2018-04-14T23:33:18.549Z,8.20
2018-04-14T23:35:45.992Z,8.87
2018-04-14T23:38:14.207Z,10.67
2018-04-14T23:40:41.656Z,12.87
2018-04-14T23:43:09.259Z,5.80
2018-04-14T23:45:36.689Z,9.33
2018-04-14T23:48:04.117Z,7.40
2018-04-14T23:50:31.617Z,8.57
2018-04-14T23:52:59.048Z,6.17
2018-04-14T23:55:26.489Z,9.40
2018-04-14T23:57:53.930Z,8.77
